sensor_id;sensor_type;location;lat;lon;timestamp;temperature;humidity
56268;DHT22;42175;46.930;9.532;2023-04-21T00:01:03;22.60;38.30
56268;DHT22;42175;46.930;9.532;2023-04-21T00:03:33;22.60;38.30
56268;DHT22;42175;46.930;9.532;2023-04-21T00:06:05;22.60;38.30
56268;DHT22;42175;46.930;9.532;2023-04-21T00:08:31;22.60;38.30
56268;DHT22;42175;46.930;9.532;2023-04-21T00:10:57;22.60;38.30
56268;DHT22;42175;46.930;9.532;2023-04-21T00:13:23;22.60;38.30
56268;DHT22;42175;46.930;9.532;2023-04-21T00:15:49;22.60;38.40
56268;DHT22;42175;46.930;9.532;2023-04-21T00:18:16;22.60;38.40
56268;DHT22;42175;46.930;9.532;2023-04-21T00:20:42;22.60;39.10
56268;DHT22;42175;46.930;9.532;2023-04-21T00:23:09;22.60;38.50
56268;DHT22;42175;46.930;9.532;2023-04-21T00:25:36;22.60;38.40
56268;DHT22;42175;46.930;9.532;2023-04-21T00:28:01;22.60;38.40
56268;DHT22;42175;46.930;9.532;2023-04-21T00:30:27;22.60;38.40
56268;DHT22;42175;46.930;9.532;2023-04-21T00:32:53;22.60;38.40
56268;DHT22;42175;46.930;9.532;2023-04-21T00:35:19;22.60;38.40
56268;DHT22;42175;46.930;9.532;2023-04-21T00:37:44;22.60;38.50
56268;DHT22;42175;46.930;9.532;2023-04-21T00:40:10;22.60;38.50
56268;DHT22;42175;46.930;9.532;2023-04-21T00:42:36;22.60;38.50
56268;DHT22;42175;46.930;9.532;2023-04-21T00:45:05;22.60;38.50
56268;DHT22;42175;46.930;9.532;2023-04-21T00:47:31;22.60;38.50
56268;DHT22;42175;46.930;9.532;2023-04-21T00:49:58;22.60;38.50
56268;DHT22;42175;46.930;9.532;2023-04-21T00:52:24;22.60;38.50
56268;DHT22;42175;46.930;9.532;2023-04-21T00:54:51;22.60;38.50
56268;DHT22;42175;46.930;9.532;2023-04-21T00:57:18;22.60;38.50
56268;DHT22;42175;46.930;9.532;2023-04-21T00:59:45;22.60;38.60
56268;DHT22;42175;46.930;9.532;2023-04-21T01:02:10;22.60;38.60
56268;DHT22;42175;46.930;9.532;2023-04-21T01:04:36;22.60;38.50
56268;DHT22;42175;46.930;9.532;2023-04-21T01:07:05;22.60;39.10
56268;DHT22;42175;46.930;9.532;2023-04-21T01:09:32;22.50;38.50
56268;DHT22;42175;46.930;9.532;2023-04-21T01:12:09;22.50;38.50
56268;DHT22;42175;46.930;9.532;2023-04-21T01:14:37;22.50;38.50
56268;DHT22;42175;46.930;9.532;2023-04-21T01:17:03;22.50;38.50
56268;DHT22;42175;46.930;9.532;2023-04-21T01:19:33;22.60;38.60
56268;DHT22;42175;46.930;9.532;2023-04-21T01:22:01;22.60;38.60
56268;DHT22;42175;46.930;9.532;2023-04-21T01:24:44;22.50;38.50
56268;DHT22;42175;46.930;9.532;2023-04-21T01:27:15;22.60;38.60
56268;DHT22;42175;46.930;9.532;2023-04-21T01:29:42;22.50;38.50
56268;DHT22;42175;46.930;9.532;2023-04-21T01:32:20;22.50;38.50
56268;DHT22;42175;46.930;9.532;2023-04-21T01:34:47;22.50;38.50
56268;DHT22;42175;46.930;9.532;2023-04-21T01:37:16;22.50;38.50
56268;DHT22;42175;46.930;9.532;2023-04-21T01:39:45;22.50;38.50
56268;DHT22;42175;46.930;9.532;2023-04-21T01:42:11;22.50;38.60
56268;DHT22;42175;46.930;9.532;2023-04-21T01:44:38;22.50;38.50
56268;DHT22;42175;46.930;9.532;2023-04-21T01:47:04;22.50;38.60
56268;DHT22;42175;46.930;9.532;2023-04-21T01:49:30;22.60;38.60
56268;DHT22;42175;46.930;9.532;2023-04-21T01:51:56;22.50;38.60
56268;DHT22;42175;46.930;9.532;2023-04-21T01:54:22;22.50;38.50
56268;DHT22;42175;46.930;9.532;2023-04-21T01:56:48;22.50;38.50
56268;DHT22;42175;46.930;9.532;2023-04-21T01:59:13;22.60;38.60
56268;DHT22;42175;46.930;9.532;2023-04-21T02:01:39;22.50;38.50
56268;DHT22;42175;46.930;9.532;2023-04-21T02:04:05;22.50;38.50
56268;DHT22;42175;46.930;9.532;2023-04-21T02:06:31;22.50;38.60
56268;DHT22;42175;46.930;9.532;2023-04-21T02:08:57;22.50;38.60
56268;DHT22;42175;46.930;9.532;2023-04-21T02:11:25;22.50;38.60
56268;DHT22;42175;46.930;9.532;2023-04-21T02:13:52;22.50;38.60
56268;DHT22;42175;46.930;9.532;2023-04-21T02:16:19;22.50;38.60
56268;DHT22;42175;46.930;9.532;2023-04-21T02:18:46;22.60;38.70
56268;DHT22;42175;46.930;9.532;2023-04-21T02:21:13;22.50;38.60
56268;DHT22;42175;46.930;9.532;2023-04-21T02:23:38;22.50;38.70
56268;DHT22;42175;46.930;9.532;2023-04-21T02:26:05;22.50;38.80
56268;DHT22;42175;46.930;9.532;2023-04-21T02:28:30;22.50;38.80
56268;DHT22;42175;46.930;9.532;2023-04-21T02:30:56;22.50;38.80
56268;DHT22;42175;46.930;9.532;2023-04-21T02:33:22;22.50;38.80
56268;DHT22;42175;46.930;9.532;2023-04-21T02:35:48;22.50;38.80
56268;DHT22;42175;46.930;9.532;2023-04-21T02:38:13;22.50;38.80
56268;DHT22;42175;46.930;9.532;2023-04-21T02:40:39;22.50;38.90
56268;DHT22;42175;46.930;9.532;2023-04-21T02:43:05;22.50;38.80
56268;DHT22;42175;46.930;9.532;2023-04-21T02:45:31;22.50;38.80
56268;DHT22;42175;46.930;9.532;2023-04-21T02:47:57;22.50;38.80
56268;DHT22;42175;46.930;9.532;2023-04-21T02:50:24;22.50;38.90
56268;DHT22;42175;46.930;9.532;2023-04-21T02:52:49;22.50;38.80
56268;DHT22;42175;46.930;9.532;2023-04-21T02:55:15;22.50;38.90
56268;DHT22;42175;46.930;9.532;2023-04-21T02:57:41;22.50;38.80
56268;DHT22;42175;46.930;9.532;2023-04-21T03:00:07;22.50;38.80
56268;DHT22;42175;46.930;9.532;2023-04-21T03:02:33;22.50;38.80
56268;DHT22;42175;46.930;9.532;2023-04-21T03:04:59;22.50;38.90
56268;DHT22;42175;46.930;9.532;2023-04-21T03:07:25;22.50;38.80
56268;DHT22;42175;46.930;9.532;2023-04-21T03:09:51;22.50;38.80
56268;DHT22;42175;46.930;9.532;2023-04-21T03:12:16;22.50;38.90
56268;DHT22;42175;46.930;9.532;2023-04-21T03:14:42;22.50;38.80
56268;DHT22;42175;46.930;9.532;2023-04-21T03:17:08;22.50;38.90
56268;DHT22;42175;46.930;9.532;2023-04-21T03:19:34;22.50;38.80
56268;DHT22;42175;46.930;9.532;2023-04-21T03:21:59;22.40;38.80
56268;DHT22;42175;46.930;9.532;2023-04-21T03:24:25;22.40;38.80
56268;DHT22;42175;46.930;9.532;2023-04-21T03:26:51;22.50;38.90
56268;DHT22;42175;46.930;9.532;2023-04-21T03:29:17;22.40;38.90
56268;DHT22;42175;46.930;9.532;2023-04-21T03:31:43;22.40;38.90
56268;DHT22;42175;46.930;9.532;2023-04-21T03:34:09;22.50;38.90
56268;DHT22;42175;46.930;9.532;2023-04-21T03:36:34;22.40;38.90
56268;DHT22;42175;46.930;9.532;2023-04-21T03:39:00;22.40;38.90
56268;DHT22;42175;46.930;9.532;2023-04-21T03:41:26;22.40;38.90
56268;DHT22;42175;46.930;9.532;2023-04-21T03:43:51;22.40;38.90
56268;DHT22;42175;46.930;9.532;2023-04-21T03:46:21;22.40;38.90
56268;DHT22;42175;46.930;9.532;2023-04-21T03:48:47;22.40;38.90
56268;DHT22;42175;46.930;9.532;2023-04-21T03:51:13;22.40;38.90
56268;DHT22;42175;46.930;9.532;2023-04-21T03:53:40;22.40;38.90
56268;DHT22;42175;46.930;9.532;2023-04-21T03:56:05;22.40;39.00
56268;DHT22;42175;46.930;9.532;2023-04-21T03:58:31;22.40;39.10
56268;DHT22;42175;46.930;9.532;2023-04-21T04:00:57;22.40;39.10
56268;DHT22;42175;46.930;9.532;2023-04-21T04:03:22;22.40;39.10
56268;DHT22;42175;46.930;9.532;2023-04-21T04:05:48;22.40;39.10
56268;DHT22;42175;46.930;9.532;2023-04-21T04:08:14;22.30;39.10
56268;DHT22;42175;46.930;9.532;2023-04-21T04:10:39;22.40;39.10
56268;DHT22;42175;46.930;9.532;2023-04-21T04:13:05;22.40;39.10
56268;DHT22;42175;46.930;9.532;2023-04-21T04:15:31;22.40;39.10
56268;DHT22;42175;46.930;9.532;2023-04-21T04:17:56;22.40;39.10
56268;DHT22;42175;46.930;9.532;2023-04-21T04:20:22;22.40;39.10
56268;DHT22;42175;46.930;9.532;2023-04-21T04:22:48;22.40;39.10
56268;DHT22;42175;46.930;9.532;2023-04-21T04:25:13;22.40;39.10
56268;DHT22;42175;46.930;9.532;2023-04-21T04:27:44;22.40;39.10
56268;DHT22;42175;46.930;9.532;2023-04-21T04:30:11;22.40;39.10
56268;DHT22;42175;46.930;9.532;2023-04-21T04:32:37;22.40;39.10
56268;DHT22;42175;46.930;9.532;2023-04-21T04:35:07;22.30;39.10
56268;DHT22;42175;46.930;9.532;2023-04-21T04:37:37;22.30;39.10
56268;DHT22;42175;46.930;9.532;2023-04-21T04:40:04;22.40;39.10
56268;DHT22;42175;46.930;9.532;2023-04-21T04:42:31;22.30;39.10
56268;DHT22;42175;46.930;9.532;2023-04-21T04:44:58;22.30;39.10
56268;DHT22;42175;46.930;9.532;2023-04-21T04:47:24;22.30;39.00
56268;DHT22;42175;46.930;9.532;2023-04-21T04:49:50;22.30;39.00
56268;DHT22;42175;46.930;9.532;2023-04-21T04:52:15;22.30;39.10
56268;DHT22;42175;46.930;9.532;2023-04-21T04:54:41;22.30;39.00
56268;DHT22;42175;46.930;9.532;2023-04-21T04:57:07;22.40;39.10
56268;DHT22;42175;46.930;9.532;2023-04-21T04:59:32;22.30;39.10
56268;DHT22;42175;46.930;9.532;2023-04-21T05:01:58;22.40;39.10
56268;DHT22;42175;46.930;9.532;2023-04-21T05:04:24;22.30;39.10
56268;DHT22;42175;46.930;9.532;2023-04-21T05:06:50;22.30;39.10
56268;DHT22;42175;46.930;9.532;2023-04-21T05:09:16;22.30;39.10
56268;DHT22;42175;46.930;9.532;2023-04-21T05:11:42;22.30;39.10
56268;DHT22;42175;46.930;9.532;2023-04-21T05:14:07;22.30;39.10
56268;DHT22;42175;46.930;9.532;2023-04-21T05:16:33;22.30;39.10
56268;DHT22;42175;46.930;9.532;2023-04-21T05:19:03;22.30;39.00
56268;DHT22;42175;46.930;9.532;2023-04-21T05:21:29;22.30;39.10
56268;DHT22;42175;46.930;9.532;2023-04-21T05:23:57;22.30;39.10
56268;DHT22;42175;46.930;9.532;2023-04-21T05:26:24;22.30;39.10
56268;DHT22;42175;46.930;9.532;2023-04-21T05:28:50;22.30;39.10
56268;DHT22;42175;46.930;9.532;2023-04-21T05:31:16;22.40;39.10
56268;DHT22;42175;46.930;9.532;2023-04-21T05:33:41;22.40;39.10
56268;DHT22;42175;46.930;9.532;2023-04-21T05:36:08;22.40;39.10
56268;DHT22;42175;46.930;9.532;2023-04-21T05:38:35;22.40;39.10
56268;DHT22;42175;46.930;9.532;2023-04-21T05:41:01;22.40;39.10
56268;DHT22;42175;46.930;9.532;2023-04-21T05:43:27;22.40;39.20
56268;DHT22;42175;46.930;9.532;2023-04-21T05:45:52;22.40;39.40
56268;DHT22;42175;46.930;9.532;2023-04-21T05:48:18;22.40;39.40
56268;DHT22;42175;46.930;9.532;2023-04-21T05:50:44;22.40;39.40
56268;DHT22;42175;46.930;9.532;2023-04-21T05:53:10;22.40;39.60
56268;DHT22;42175;46.930;9.532;2023-04-21T05:55:36;22.40;39.40
56268;DHT22;42175;46.930;9.532;2023-04-21T05:58:02;22.40;39.30
56268;DHT22;42175;46.930;9.532;2023-04-21T06:00:29;22.40;39.50
56268;DHT22;42175;46.930;9.532;2023-04-21T06:02:55;22.40;39.60
56268;DHT22;42175;46.930;9.532;2023-04-21T06:05:20;22.40;39.70
56268;DHT22;42175;46.930;9.532;2023-04-21T06:07:46;22.40;39.90
56268;DHT22;42175;46.930;9.532;2023-04-21T06:10:12;22.50;39.90
56268;DHT22;42175;46.930;9.532;2023-04-21T06:12:38;22.40;39.80
56268;DHT22;42175;46.930;9.532;2023-04-21T06:15:04;22.40;39.80
56268;DHT22;42175;46.930;9.532;2023-04-21T06:17:31;22.40;39.90
56268;DHT22;42175;46.930;9.532;2023-04-21T06:19:56;22.40;40.00
56268;DHT22;42175;46.930;9.532;2023-04-21T06:22:22;22.40;39.90
56268;DHT22;42175;46.930;9.532;2023-04-21T06:24:48;22.40;40.00
56268;DHT22;42175;46.930;9.532;2023-04-21T06:27:14;22.40;40.10
56268;DHT22;42175;46.930;9.532;2023-04-21T06:29:40;22.50;40.20
56268;DHT22;42175;46.930;9.532;2023-04-21T06:32:07;22.40;40.20
56268;DHT22;42175;46.930;9.532;2023-04-21T06:34:33;22.50;40.40
56268;DHT22;42175;46.930;9.532;2023-04-21T06:36:58;22.40;40.30
56268;DHT22;42175;46.930;9.532;2023-04-21T06:39:25;22.50;40.30
56268;DHT22;42175;46.930;9.532;2023-04-21T06:41:51;22.40;40.30
56268;DHT22;42175;46.930;9.532;2023-04-21T06:44:16;22.50;40.40
56268;DHT22;42175;46.930;9.532;2023-04-21T06:46:42;22.40;40.40
56268;DHT22;42175;46.930;9.532;2023-04-21T06:49:08;22.50;40.50
56268;DHT22;42175;46.930;9.532;2023-04-21T06:51:34;22.50;40.40
56268;DHT22;42175;46.930;9.532;2023-04-21T06:54:00;22.50;40.60
56268;DHT22;42175;46.930;9.532;2023-04-21T06:56:26;22.50;40.40
56268;DHT22;42175;46.930;9.532;2023-04-21T06:58:52;22.50;40.50
56268;DHT22;42175;46.930;9.532;2023-04-21T07:01:18;22.50;40.40
56268;DHT22;42175;46.930;9.532;2023-04-21T07:03:44;22.50;40.40
56268;DHT22;42175;46.930;9.532;2023-04-21T07:06:09;22.50;40.40
56268;DHT22;42175;46.930;9.532;2023-04-21T07:08:35;22.50;40.40
56268;DHT22;42175;46.930;9.532;2023-04-21T07:11:01;22.50;40.40
56268;DHT22;42175;46.930;9.532;2023-04-21T07:13:27;22.50;40.40
56268;DHT22;42175;46.930;9.532;2023-04-21T07:15:53;22.50;40.40
56268;DHT22;42175;46.930;9.532;2023-04-21T07:18:18;22.30;37.20
56268;DHT22;42175;46.930;9.532;2023-04-21T07:20:44;21.80;37.20
56268;DHT22;42175;46.930;9.532;2023-04-21T07:23:10;21.40;38.20
56268;DHT22;42175;46.930;9.532;2023-04-21T07:25:36;21.00;38.60
56268;DHT22;42175;46.930;9.532;2023-04-21T07:28:03;20.70;39.10
56268;DHT22;42175;46.930;9.532;2023-04-21T07:30:29;20.60;39.60
56268;DHT22;42175;46.930;9.532;2023-04-21T07:32:55;20.40;39.20
56268;DHT22;42175;46.930;9.532;2023-04-21T07:35:20;20.30;40.10
56268;DHT22;42175;46.930;9.532;2023-04-21T07:37:46;20.40;40.10
56268;DHT22;42175;46.930;9.532;2023-04-21T07:40:12;20.70;40.30
56268;DHT22;42175;46.930;9.532;2023-04-21T07:42:38;21.00;40.20
56268;DHT22;42175;46.930;9.532;2023-04-21T07:45:04;21.20;39.90
56268;DHT22;42175;46.930;9.532;2023-04-21T07:47:30;21.40;39.90
56268;DHT22;42175;46.930;9.532;2023-04-21T07:49:56;21.50;40.00
56268;DHT22;42175;46.930;9.532;2023-04-21T07:52:22;21.60;40.00
56268;DHT22;42175;46.930;9.532;2023-04-21T07:54:47;21.60;39.90
56268;DHT22;42175;46.930;9.532;2023-04-21T07:57:13;21.70;40.00
56268;DHT22;42175;46.930;9.532;2023-04-21T07:59:39;21.80;40.10
56268;DHT22;42175;46.930;9.532;2023-04-21T08:02:05;21.80;40.10
56268;DHT22;42175;46.930;9.532;2023-04-21T08:04:30;21.80;40.20
56268;DHT22;42175;46.930;9.532;2023-04-21T08:06:56;21.80;40.20
56268;DHT22;42175;46.930;9.532;2023-04-21T08:09:22;21.90;40.20
56268;DHT22;42175;46.930;9.532;2023-04-21T08:11:47;21.90;40.20
56268;DHT22;42175;46.930;9.532;2023-04-21T08:14:13;22.00;40.40
56268;DHT22;42175;46.930;9.532;2023-04-21T08:16:39;22.00;40.40
56268;DHT22;42175;46.930;9.532;2023-04-21T08:19:07;22.00;40.40
56268;DHT22;42175;46.930;9.532;2023-04-21T08:21:32;22.00;40.30
56268;DHT22;42175;46.930;9.532;2023-04-21T08:23:58;22.00;40.30
56268;DHT22;42175;46.930;9.532;2023-04-21T08:26:24;22.10;40.40
56268;DHT22;42175;46.930;9.532;2023-04-21T08:28:51;22.10;40.40
56268;DHT22;42175;46.930;9.532;2023-04-21T08:31:18;22.10;40.50
56268;DHT22;42175;46.930;9.532;2023-04-21T08:33:44;22.10;40.60
56268;DHT22;42175;46.930;9.532;2023-04-21T08:36:10;22.10;40.60
56268;DHT22;42175;46.930;9.532;2023-04-21T08:38:41;22.10;40.60
56268;DHT22;42175;46.930;9.532;2023-04-21T08:41:07;22.20;40.70
56268;DHT22;42175;46.930;9.532;2023-04-21T08:43:33;22.20;40.80
56268;DHT22;42175;46.930;9.532;2023-04-21T08:45:59;22.20;40.80
56268;DHT22;42175;46.930;9.532;2023-04-21T08:48:28;22.20;40.80
56268;DHT22;42175;46.930;9.532;2023-04-21T08:50:54;22.20;40.90
56268;DHT22;42175;46.930;9.532;2023-04-21T08:53:20;22.20;41.00
56268;DHT22;42175;46.930;9.532;2023-04-21T08:55:51;22.20;41.00
56268;DHT22;42175;46.930;9.532;2023-04-21T08:58:17;22.20;41.00
56268;DHT22;42175;46.930;9.532;2023-04-21T09:00:43;22.30;41.10
56268;DHT22;42175;46.930;9.532;2023-04-21T09:03:08;22.20;41.60
56268;DHT22;42175;46.930;9.532;2023-04-21T09:05:34;22.20;41.00
56268;DHT22;42175;46.930;9.532;2023-04-21T09:08:12;22.20;41.80
56268;DHT22;42175;46.930;9.532;2023-04-21T09:10:48;22.20;41.30
56268;DHT22;42175;46.930;9.532;2023-04-21T09:13:15;22.20;41.40
56268;DHT22;42175;46.930;9.532;2023-04-21T09:15:44;22.30;41.40
56268;DHT22;42175;46.930;9.532;2023-04-21T09:18:20;22.20;41.50
56268;DHT22;42175;46.930;9.532;2023-04-21T09:20:48;22.30;41.60
56268;DHT22;42175;46.930;9.532;2023-04-21T09:23:14;22.30;41.60
56268;DHT22;42175;46.930;9.532;2023-04-21T09:25:44;22.30;41.70
56268;DHT22;42175;46.930;9.532;2023-04-21T09:28:13;22.30;41.60
56268;DHT22;42175;46.930;9.532;2023-04-21T09:30:40;22.30;41.70
56268;DHT22;42175;46.930;9.532;2023-04-21T09:33:13;22.30;42.30
56268;DHT22;42175;46.930;9.532;2023-04-21T09:35:39;22.30;41.50
56268;DHT22;42175;46.930;9.532;2023-04-21T09:38:10;22.30;41.70
56268;DHT22;42175;46.930;9.532;2023-04-21T09:40:36;22.30;41.60
56268;DHT22;42175;46.930;9.532;2023-04-21T09:43:02;22.30;41.60
56268;DHT22;42175;46.930;9.532;2023-04-21T09:45:28;22.30;41.60
56268;DHT22;42175;46.930;9.532;2023-04-21T09:47:56;22.30;41.60
56268;DHT22;42175;46.930;9.532;2023-04-21T09:50:22;22.30;41.70
56268;DHT22;42175;46.930;9.532;2023-04-21T09:52:53;22.40;41.60
56268;DHT22;42175;46.930;9.532;2023-04-21T09:55:23;22.30;41.60
56268;DHT22;42175;46.930;9.532;2023-04-21T09:57:51;22.30;41.50
56268;DHT22;42175;46.930;9.532;2023-04-21T10:00:20;22.40;41.60
56268;DHT22;42175;46.930;9.532;2023-04-21T10:02:49;22.40;41.50
56268;DHT22;42175;46.930;9.532;2023-04-21T10:05:15;22.40;41.60
56268;DHT22;42175;46.930;9.532;2023-04-21T10:07:43;22.40;41.40
56268;DHT22;42175;46.930;9.532;2023-04-21T10:10:25;22.40;41.50
56268;DHT22;42175;46.930;9.532;2023-04-21T10:12:52;22.50;41.50
56268;DHT22;42175;46.930;9.532;2023-04-21T10:18:30;22.50;41.40
56268;DHT22;42175;46.930;9.532;2023-04-21T10:21:00;22.50;41.50
56268;DHT22;42175;46.930;9.532;2023-04-21T10:23:36;22.50;41.40
56268;DHT22;42175;46.930;9.532;2023-04-21T10:28:44;22.50;41.50
56268;DHT22;42175;46.930;9.532;2023-04-21T10:36:33;22.50;41.40
56268;DHT22;42175;46.930;9.532;2023-04-21T10:39:03;22.60;41.40
56268;DHT22;42175;46.930;9.532;2023-04-21T10:41:30;22.60;41.40
56268;DHT22;42175;46.930;9.532;2023-04-21T10:44:01;22.60;41.30
56268;DHT22;42175;46.930;9.532;2023-04-21T10:49:06;22.60;41.30
56268;DHT22;42175;46.930;9.532;2023-04-21T10:51:32;22.60;41.30
56268;DHT22;42175;46.930;9.532;2023-04-21T10:54:20;22.60;41.30
56268;DHT22;42175;46.930;9.532;2023-04-21T10:56:48;22.60;41.30
56268;DHT22;42175;46.930;9.532;2023-04-21T10:59:17;22.60;41.30
56268;DHT22;42175;46.930;9.532;2023-04-21T11:01:43;22.60;41.30
56268;DHT22;42175;46.930;9.532;2023-04-21T11:04:20;22.60;41.30
56268;DHT22;42175;46.930;9.532;2023-04-21T11:07:09;22.60;41.30
56268;DHT22;42175;46.930;9.532;2023-04-21T11:09:36;22.60;41.30
56268;DHT22;42175;46.930;9.532;2023-04-21T11:12:10;22.60;41.30
56268;DHT22;42175;46.930;9.532;2023-04-21T11:14:38;22.60;41.30
56268;DHT22;42175;46.930;9.532;2023-04-21T11:17:09;22.60;41.30
56268;DHT22;42175;46.930;9.532;2023-04-21T11:19:36;22.60;41.30
56268;DHT22;42175;46.930;9.532;2023-04-21T11:22:03;22.60;41.40
56268;DHT22;42175;46.930;9.532;2023-04-21T11:24:30;22.60;41.30
56268;DHT22;42175;46.930;9.532;2023-04-21T11:26:56;22.60;41.30
56268;DHT22;42175;46.930;9.532;2023-04-21T11:29:23;22.60;41.30
56268;DHT22;42175;46.930;9.532;2023-04-21T11:31:49;22.60;41.30
56268;DHT22;42175;46.930;9.532;2023-04-21T11:34:18;22.60;41.30
56268;DHT22;42175;46.930;9.532;2023-04-21T11:36:46;22.60;41.30
56268;DHT22;42175;46.930;9.532;2023-04-21T11:39:14;22.60;41.30
56268;DHT22;42175;46.930;9.532;2023-04-21T11:41:45;22.60;41.90
56268;DHT22;42175;46.930;9.532;2023-04-21T11:44:13;22.60;41.20
56268;DHT22;42175;46.930;9.532;2023-04-21T11:46:51;22.60;41.30
56268;DHT22;42175;46.930;9.532;2023-04-21T11:49:16;22.60;41.20
56268;DHT22;42175;46.930;9.532;2023-04-21T11:51:43;22.70;41.10
56268;DHT22;42175;46.930;9.532;2023-04-21T11:54:13;22.70;41.10
56268;DHT22;42175;46.930;9.532;2023-04-21T11:56:41;22.70;40.90
56268;DHT22;42175;46.930;9.532;2023-04-21T11:59:11;22.70;41.00
56268;DHT22;42175;46.930;9.532;2023-04-21T12:04:16;22.70;41.10
56268;DHT22;42175;46.930;9.532;2023-04-21T12:06:42;22.70;41.10
56268;DHT22;42175;46.930;9.532;2023-04-21T12:09:18;22.70;41.00
56268;DHT22;42175;46.930;9.532;2023-04-21T12:11:50;22.70;41.00
56268;DHT22;42175;46.930;9.532;2023-04-21T12:14:21;22.70;41.00
56268;DHT22;42175;46.930;9.532;2023-04-21T12:16:55;22.70;41.00
56268;DHT22;42175;46.930;9.532;2023-04-21T12:21:55;22.70;40.90
56268;DHT22;42175;46.930;9.532;2023-04-21T12:24:21;22.70;40.90
56268;DHT22;42175;46.930;9.532;2023-04-21T12:26:46;22.70;41.00
56268;DHT22;42175;46.930;9.532;2023-04-21T12:29:13;22.70;41.00
56268;DHT22;42175;46.930;9.532;2023-04-21T12:31:38;22.70;41.00
56268;DHT22;42175;46.930;9.532;2023-04-21T12:34:04;22.70;41.00
56268;DHT22;42175;46.930;9.532;2023-04-21T12:36:30;22.70;41.00
56268;DHT22;42175;46.930;9.532;2023-04-21T12:38:56;22.70;41.00
56268;DHT22;42175;46.930;9.532;2023-04-21T12:41:21;22.70;41.00
56268;DHT22;42175;46.930;9.532;2023-04-21T12:43:47;22.70;41.00
56268;DHT22;42175;46.930;9.532;2023-04-21T12:46:13;22.70;41.00
56268;DHT22;42175;46.930;9.532;2023-04-21T12:48:38;22.70;41.00
56268;DHT22;42175;46.930;9.532;2023-04-21T12:51:04;22.70;41.00
56268;DHT22;42175;46.930;9.532;2023-04-21T12:53:30;22.70;41.00
56268;DHT22;42175;46.930;9.532;2023-04-21T12:55:56;22.80;41.00
56268;DHT22;42175;46.930;9.532;2023-04-21T12:58:22;22.80;41.00
56268;DHT22;42175;46.930;9.532;2023-04-21T13:00:47;22.80;41.60
56268;DHT22;42175;46.930;9.532;2023-04-21T13:03:13;22.70;40.90
56268;DHT22;42175;46.930;9.532;2023-04-21T13:05:39;22.80;40.90
56268;DHT22;42175;46.930;9.532;2023-04-21T13:08:05;22.70;40.90
56268;DHT22;42175;46.930;9.532;2023-04-21T13:10:30;22.80;41.00
56268;DHT22;42175;46.930;9.532;2023-04-21T13:12:56;22.80;41.00
56268;DHT22;42175;46.930;9.532;2023-04-21T13:15:22;22.80;41.00
56268;DHT22;42175;46.930;9.532;2023-04-21T13:17:47;22.80;41.00
56268;DHT22;42175;46.930;9.532;2023-04-21T13:20:13;22.80;40.90
56268;DHT22;42175;46.930;9.532;2023-04-21T13:22:39;22.80;40.90
56268;DHT22;42175;46.930;9.532;2023-04-21T13:25:05;22.80;40.90
56268;DHT22;42175;46.930;9.532;2023-04-21T13:27:31;22.80;40.90
56268;DHT22;42175;46.930;9.532;2023-04-21T13:29:58;22.80;40.80
56268;DHT22;42175;46.930;9.532;2023-04-21T13:32:23;22.80;40.90
56268;DHT22;42175;46.930;9.532;2023-04-21T13:34:49;22.80;40.90
56268;DHT22;42175;46.930;9.532;2023-04-21T13:37:15;22.80;40.90
56268;DHT22;42175;46.930;9.532;2023-04-21T13:39:41;22.90;40.90
56268;DHT22;42175;46.930;9.532;2023-04-21T13:42:07;22.80;40.80
56268;DHT22;42175;46.930;9.532;2023-04-21T13:44:33;22.80;40.90
56268;DHT22;42175;46.930;9.532;2023-04-21T13:46:59;22.80;40.90
56268;DHT22;42175;46.930;9.532;2023-04-21T13:49:25;22.80;40.90
56268;DHT22;42175;46.930;9.532;2023-04-21T13:51:51;22.80;40.80
56268;DHT22;42175;46.930;9.532;2023-04-21T13:54:16;22.80;40.80
56268;DHT22;42175;46.930;9.532;2023-04-21T13:56:42;22.80;40.80
56268;DHT22;42175;46.930;9.532;2023-04-21T13:59:08;22.80;40.80
56268;DHT22;42175;46.930;9.532;2023-04-21T14:01:35;22.80;40.80
56268;DHT22;42175;46.930;9.532;2023-04-21T14:04:02;22.90;40.80
56268;DHT22;42175;46.930;9.532;2023-04-21T14:06:27;22.80;40.80
56268;DHT22;42175;46.930;9.532;2023-04-21T14:08:53;22.80;40.70
56268;DHT22;42175;46.930;9.532;2023-04-21T14:11:19;22.80;36.90
56268;DHT22;42175;46.930;9.532;2023-04-21T14:13:45;22.80;35.10
56268;DHT22;42175;46.930;9.532;2023-04-21T14:16:11;22.70;35.70
56268;DHT22;42175;46.930;9.532;2023-04-21T14:18:37;22.70;34.40
56268;DHT22;42175;46.930;9.532;2023-04-21T14:21:08;22.70;33.10
56268;DHT22;42175;46.930;9.532;2023-04-21T14:23:34;22.60;33.60
56268;DHT22;42175;46.930;9.532;2023-04-21T14:25:59;22.50;32.20
56268;DHT22;42175;46.930;9.532;2023-04-21T14:28:25;22.40;32.50
56268;DHT22;42175;46.930;9.532;2023-04-21T14:30:51;22.40;32.20
56268;DHT22;42175;46.930;9.532;2023-04-21T14:33:17;22.40;32.80
56268;DHT22;42175;46.930;9.532;2023-04-21T14:35:42;22.40;31.90
56268;DHT22;42175;46.930;9.532;2023-04-21T14:38:08;22.40;32.20
56268;DHT22;42175;46.930;9.532;2023-04-21T14:40:34;22.40;32.20
56268;DHT22;42175;46.930;9.532;2023-04-21T14:42:59;22.40;32.10
56268;DHT22;42175;46.930;9.532;2023-04-21T14:45:25;22.30;31.60
56268;DHT22;42175;46.930;9.532;2023-04-21T14:47:51;22.20;32.50
56268;DHT22;42175;46.930;9.532;2023-04-21T14:50:16;22.30;31.80
56268;DHT22;42175;46.930;9.532;2023-04-21T14:52:42;22.20;31.40
56268;DHT22;42175;46.930;9.532;2023-04-21T14:55:08;22.10;32.00
56268;DHT22;42175;46.930;9.532;2023-04-21T14:57:34;22.20;31.60
56268;DHT22;42175;46.930;9.532;2023-04-21T14:59:59;22.10;31.60
56268;DHT22;42175;46.930;9.532;2023-04-21T15:02:26;22.10;32.00
56268;DHT22;42175;46.930;9.532;2023-04-21T15:04:51;22.10;31.40
56268;DHT22;42175;46.930;9.532;2023-04-21T15:07:17;22.10;31.80
56268;DHT22;42175;46.930;9.532;2023-04-21T15:09:43;22.10;32.20
56268;DHT22;42175;46.930;9.532;2023-04-21T15:12:10;22.00;31.80
56268;DHT22;42175;46.930;9.532;2023-04-21T15:14:40;22.00;31.80
56268;DHT22;42175;46.930;9.532;2023-04-21T15:17:05;22.00;31.30
56268;DHT22;42175;46.930;9.532;2023-04-21T15:19:31;22.00;31.00
56268;DHT22;42175;46.930;9.532;2023-04-21T15:21:57;22.00;32.30
56268;DHT22;42175;46.930;9.532;2023-04-21T15:24:23;22.00;31.20
56268;DHT22;42175;46.930;9.532;2023-04-21T15:26:48;22.00;31.20
56268;DHT22;42175;46.930;9.532;2023-04-21T15:29:14;22.00;30.90
56268;DHT22;42175;46.930;9.532;2023-04-21T15:31:40;22.00;30.90
56268;DHT22;42175;46.930;9.532;2023-04-21T15:34:06;21.90;30.90
56268;DHT22;42175;46.930;9.532;2023-04-21T15:36:31;21.90;31.90
56268;DHT22;42175;46.930;9.532;2023-04-21T15:38:57;21.90;32.10
56268;DHT22;42175;46.930;9.532;2023-04-21T15:41:23;21.90;32.00
56268;DHT22;42175;46.930;9.532;2023-04-21T15:43:50;21.90;32.30
56268;DHT22;42175;46.930;9.532;2023-04-21T15:46:16;21.90;32.30